createdAt,value
2023-03-23T15:58:49.931Z,99522.13
2023-03-23T16:01:31.431Z,99538.81
2023-03-23T16:04:06.884Z,99535.06
2023-03-23T16:06:35.297Z,99532.31
2023-03-23T16:09:04.504Z,99541.06
2023-03-23T16:11:33.555Z,99545.50
2023-03-23T16:14:02.035Z,99537.56
2023-03-23T16:16:33.992Z,99537.31
2023-03-23T16:19:01.466Z,99536.72
2023-03-23T16:21:29.043Z,99534.28
2023-03-23T16:23:56.816Z,99534.78
2023-03-23T16:26:24.387Z,99535.50
2023-03-23T16:28:55.300Z,99538.56
2023-03-23T16:31:27.745Z,99534.91
2023-03-23T16:33:55.586Z,99534.72
2023-03-23T16:36:22.968Z,99542.66
2023-03-23T16:38:52.972Z,99540.47
2023-03-23T16:41:21.686Z,99549.47
2023-03-23T16:43:49.510Z,99547.97
2023-03-23T16:46:17.297Z,99550.56
2023-03-23T16:48:44.743Z,99553.34
2023-03-23T16:51:12.398Z,99550.06
2023-03-23T16:53:40.197Z,99548.19
2023-03-23T16:56:07.756Z,99551.06
2023-03-23T16:58:35.694Z,99547.84
2023-03-23T17:01:03.911Z,99553.16
2023-03-23T17:03:31.599Z,99557.94
2023-03-23T17:06:00.412Z,99552.44
2023-03-23T17:08:28.747Z,99562.09
2023-03-23T17:10:56.192Z,99558.34
2023-03-23T17:13:25.418Z,99559.69
2023-03-23T17:15:55.463Z,99556.81
2023-03-23T17:18:24.492Z,99556.03
2023-03-23T17:20:55.383Z,99555.03
2023-03-23T17:23:23.130Z,99567.13
2023-03-23T17:25:51.088Z,99566.25
2023-03-23T17:28:20.438Z,99567.34
2023-03-23T17:30:48.916Z,99567.09
2023-03-23T17:33:16.292Z,99578.94
2023-03-23T17:35:46.119Z,99580.63
2023-03-23T17:38:13.977Z,99578.94
2023-03-23T17:40:41.471Z,99578.69
2023-03-23T17:43:09.142Z,99587.66
2023-03-23T17:45:37.034Z,99591.97
2023-03-23T17:48:07.686Z,99594.78
2023-03-23T17:50:36.162Z,99599.31
2023-03-23T17:53:04.533Z,99599.59
2023-03-23T17:55:32.178Z,99604.87
2023-03-23T17:57:59.695Z,99608.41
2023-03-23T18:00:27.361Z,99602.91
2023-03-23T18:02:56.409Z,99603.13
2023-03-23T18:05:24.626Z,99610.22
2023-03-23T18:07:52.023Z,99608.22
2023-03-23T18:10:20.213Z,99617.00
2023-03-23T18:12:50.151Z,99621.38
2023-03-23T18:15:18.073Z,99625.56
2023-03-23T18:17:48.170Z,99624.06
2023-03-23T18:20:15.850Z,99623.00
2023-03-23T18:22:43.413Z,99627.63
2023-03-23T18:25:11.149Z,99626.78
2023-03-23T18:27:38.719Z,99631.41
2023-03-23T18:30:07.534Z,99636.22
2023-03-23T18:32:36.601Z,99631.94
2023-03-23T18:35:05.945Z,99633.47
2023-03-23T18:37:35.332Z,99630.75
2023-03-23T18:40:05.488Z,99633.81
2023-03-23T18:42:33.053Z,99639.06
2023-03-23T18:45:04.428Z,99636.97
2023-03-23T18:47:32.293Z,99629.94
2023-03-23T18:50:01.514Z,99625.84
2023-03-23T18:52:31.105Z,99626.78
2023-03-23T18:54:59.102Z,99629.72
2023-03-23T18:57:27.144Z,99628.94
2023-03-23T18:59:54.851Z,99634.69
2023-03-23T19:02:23.761Z,99629.34
2023-03-23T19:04:51.658Z,99624.53
2023-03-23T19:07:19.838Z,99631.19
2023-03-23T19:09:48.100Z,99632.06
2023-03-23T19:12:16.067Z,99633.06
2023-03-23T19:14:43.915Z,99629.00
2023-03-23T19:17:11.733Z,99631.97
2023-03-23T19:19:43.055Z,99626.47
2023-03-23T19:22:11.854Z,99625.84
2023-03-23T19:24:39.481Z,99621.19
2023-03-23T19:27:08.054Z,99615.91
2023-03-23T19:29:35.834Z,99611.19
2023-03-23T19:32:03.621Z,99606.31
2023-03-23T19:34:31.830Z,99612.66
2023-03-23T19:37:05.317Z,99615.47
2023-03-23T19:39:34.481Z,99616.28
2023-03-23T19:42:02.029Z,99622.03
2023-03-23T19:44:29.509Z,99620.63
2023-03-23T19:46:57.695Z,99625.31
2023-03-23T19:49:25.416Z,99627.25
2023-03-23T19:52:07.798Z,99640.56
2023-03-23T19:54:37.002Z,99639.12
2023-03-23T19:57:04.448Z,99638.47
2023-03-23T19:59:31.898Z,99641.13
2023-03-23T20:01:59.586Z,99646.59
2023-03-23T20:04:27.314Z,99646.84
2023-03-23T20:06:56.364Z,99643.59
2023-03-23T20:09:25.292Z,99654.19
2023-03-23T20:11:53.799Z,99655.19
2023-03-23T20:14:21.406Z,99656.88
2023-03-23T20:16:48.769Z,99644.13
2023-03-23T20:19:16.565Z,99636.72
2023-03-23T20:21:44.938Z,99644.84
2023-03-23T20:24:12.601Z,99650.66
2023-03-23T20:26:43.165Z,99647.66
2023-03-23T20:29:10.968Z,99651.41
2023-03-23T20:31:41.018Z,99644.28
2023-03-23T20:34:17.160Z,99651.50
2023-03-23T20:36:45.817Z,99645.72
2023-03-23T20:39:18.646Z,99647.81
2023-03-23T20:41:47.630Z,99647.72
2023-03-23T20:44:15.736Z,99638.38
2023-03-23T20:46:48.097Z,99642.37
2023-03-23T20:49:17.154Z,99648.59
2023-03-23T20:51:44.987Z,99656.25
2023-03-23T20:54:15.608Z,99653.62
2023-03-23T20:56:44.644Z,99656.34
2023-03-23T20:59:13.077Z,99658.28
2023-03-23T21:01:40.648Z,99657.87
2023-03-23T21:04:15.067Z,99647.75
2023-03-23T21:06:43.960Z,99653.94
2023-03-23T21:09:12.802Z,99653.94
2023-03-23T21:11:40.623Z,99645.63
2023-03-23T21:14:08.451Z,99648.50
2023-03-23T21:16:36.293Z,99652.00
2023-03-23T21:19:05.369Z,99646.75
2023-03-23T21:21:34.165Z,99640.19
2023-03-23T21:24:02.831Z,99638.31
2023-03-23T21:26:30.760Z,99633.97
2023-03-23T21:29:01.225Z,99637.84
2023-03-23T21:31:30.469Z,99635.94
2023-03-23T21:33:58.858Z,99643.41
2023-03-23T21:36:27.350Z,99636.81
2023-03-23T21:38:56.125Z,99642.97
2023-03-23T21:41:23.920Z,99652.38
2023-03-23T21:43:51.606Z,99653.84
2023-03-23T21:46:19.665Z,99648.88
2023-03-23T21:48:50.985Z,99653.25
2023-03-23T21:51:24.277Z,99651.13
2023-03-23T21:53:54.189Z,99657.66
2023-03-23T21:56:24.198Z,99644.91
2023-03-23T21:58:52.236Z,99655.22
2023-03-23T22:01:20.392Z,99651.72
2023-03-23T22:03:48.179Z,99643.09
2023-03-23T22:06:20.888Z,99642.53
2023-03-23T22:08:48.680Z,99648.78
2023-03-23T22:11:31.244Z,99644.06
2023-03-23T22:14:03.167Z,99645.00
2023-03-23T22:16:31.468Z,99652.13
2023-03-23T22:19:00.332Z,99655.03
2023-03-23T22:21:29.252Z,99659.81
2023-03-23T22:23:59.149Z,99658.97
2023-03-23T22:26:27.838Z,99654.88
2023-03-23T22:28:55.866Z,99657.41
2023-03-23T22:31:26.409Z,99651.41
2023-03-23T22:33:55.977Z,99651.53
2023-03-23T22:36:25.829Z,99657.66
2023-03-23T22:38:55.063Z,99650.03
2023-03-23T22:41:28.025Z,99661.28
2023-03-23T22:43:55.882Z,99659.59
2023-03-23T22:46:25.017Z,99659.91
2023-03-23T22:48:52.558Z,99658.09
2023-03-23T22:51:21.269Z,99668.69
2023-03-23T22:53:49.856Z,99666.06
2023-03-23T22:56:17.541Z,99661.81
2023-03-23T22:58:45.536Z,99668.06
2023-03-23T23:01:21.520Z,99666.13
2023-03-23T23:03:49.545Z,99668.91
2023-03-23T23:06:17.892Z,99675.16
2023-03-23T23:08:45.871Z,99675.28
2023-03-23T23:11:16.222Z,99678.94
2023-03-23T23:13:44.558Z,99678.97
2023-03-23T23:16:13.224Z,99676.41
2023-03-23T23:18:41.326Z,99674.03
2023-03-23T23:21:12.440Z,99680.34
2023-03-23T23:23:40.251Z,99686.47
2023-03-23T23:26:07.858Z,99682.28
2023-03-23T23:28:36.281Z,99674.38
2023-03-23T23:31:04.223Z,99679.81
2023-03-23T23:33:32.436Z,99679.81
2023-03-23T23:36:00.286Z,99678.88
2023-03-23T23:38:27.789Z,99677.34
2023-03-23T23:40:55.212Z,99684.91
2023-03-23T23:43:23.011Z,99674.81
2023-03-23T23:45:50.551Z,99674.75
2023-03-23T23:48:18.348Z,99669.53
2023-03-23T23:50:46.180Z,99673.19
2023-03-23T23:53:13.754Z,99664.59
2023-03-23T23:55:41.200Z,99663.00
2023-03-23T23:58:08.991Z,99658.78
